This is the latest recevied weather packets stored in our database for station/object G8PZT. If no packets are shown the sender has not sent any weather packets the latest 10 day(s).
| Time | Temp. | Humidity | Pressure | Rain* | Wind** | Luminosity | Snow |
|---|---|---|---|---|---|---|---|
| 1777658402 | 15.56° C | 47% | - | 0 mm | - | - | - |
| 1777657916 | 15.56° C | 47% | - | 0 mm | - | - | - |
| 1777657316 | 15.56° C | 46% | - | 0 mm | - | - | - |
| 1777657204 | 15.56° C | 46% | - | 0 mm | - | - | - |
| 1777656716 | 15.56° C | 45% | - | 0 mm | - | - | - |
| 1777656116 | 16.11° C | 45% | - | 0 mm | - | - | - |
| 1777656003 | 16.11° C | 45% | - | 0 mm | - | - | - |
| 1777655516 | 16.11° C | 46% | - | 0 mm | - | - | - |
| 1777654916 | 15.56° C | 46% | - | 0 mm | - | - | - |
| 1777654802 | 16.11° C | 47% | - | 0 mm | - | - | - |
| 1777654316 | 15.56° C | 47% | - | 0 mm | - | - | - |
| 1777653716 | 15.56° C | 47% | - | 0 mm | - | - | - |
| 1777653603 | 15.56° C | 48% | - | 0 mm | - | - | - |
| 1777653116 | 15.56° C | 48% | - | 0 mm | - | - | - |
| 1777652516 | 15.56° C | 48% | - | 0 mm | - | - | - |
| 1777652402 | 15.56° C | 48% | - | 0 mm | - | - | - |
| 1777651915 | 15.56° C | 47% | - | 0 mm | - | - | - |
| 1777651315 | 15.56° C | 43% | - | 0 mm | - | - | - |
| 1777651202 | 15.56° C | 42% | - | 0 mm | - | - | - |
| 1777650715 | 16.11° C | 39% | - | 0 mm | - | - | - |
| 1777650002 | 16.67° C | 34% | - | 0 mm | - | - | - |
| 1777649516 | 17.78° C | 27% | - | 0 mm | - | - | - |
| 1777648916 | 19.44° C | 22% | - | 0 mm | - | - | - |
| 1777648802 | 20° C | 21% | - | 0 mm | - | - | - |
| 1777648316 | 20.56° C | 21% | - | 0 mm | - | - | - |
* Rain latest hour (hover to see other rain measurements)
** Current wind speed in m/s (hover to see current wind gust speed)